Time;durP1;ratioP1;P1;durP2;ratioP2;P2;SDS_P1;SDS_P2;PMS_P1;PMS_P2;Temp;Humidity;BMP_temperature;BMP_pressure;BME280_temperature;BME280_humidity;BME280_pressure;Samples;Min_cycle;Max_cycle;Signal;HPM_P1;HPM_P2
2023/03/19 04:13:05;;;;;;;15.05;5.28;;;10.60;99.90;;;;;;5049246;23;20302;-94
2023/03/19 04:15:09;;;;;;;9.57;5.22;;;10.50;99.90;;;;;;5022017;23;20523;-94
2023/03/19 04:17:39;;;;;;;9.77;5.20;;;10.50;99.90;;;;;;5022780;23;20506;-96
2023/03/19 04:19:53;;;;;;;12.32;5.50;;;10.50;99.90;;;;;;5074391;23;20173;-96
2023/03/19 04:22:02;;;;;;;13.20;5.88;;;10.60;99.90;;;;;;5022071;23;20257;-94
2023/03/19 04:24:20;;;;;;;12.73;5.45;;;10.60;99.90;;;;;;5049523;23;20186;-96
2023/03/19 04:26:30;;;;;;;10.65;5.70;;;10.60;99.90;;;;;;5024555;23;20158;-96
2023/03/19 04:29:06;;;;;;;;;;;;;;;;;;;;;
2023/03/19 04:31:20;;;;;;;11.93;5.60;;;10.70;99.90;;;;;;5048184;23;20158;-96
2023/03/19 04:33:23;;;;;;;14.68;5.60;;;10.70;99.90;;;;;;5022582;23;20486;-96
2023/03/19 04:35:26;;;;;;;12.88;5.88;;;10.40;99.90;;;;;;5022433;23;20162;-96
2023/03/19 04:37:35;;;;;;;14.27;5.45;;;10.30;99.90;;;;;;5021921;23;20151;-95
2023/03/19 04:39:41;;;;;;;15.65;5.20;;;10.30;99.90;;;;;;5024087;23;20178;-96
2023/03/19 04:41:45;;;;;;;13.98;5.57;;;10.10;99.90;;;;;;5024777;23;20191;-94
2023/03/19 04:44:18;;;;;;;14.90;5.40;;;9.90;99.90;;;;;;5033291;23;20185;-94
2023/03/19 04:46:24;;;;;;;12.73;5.60;;;10.10;99.90;;;;;;5024342;23;20159;-95
2023/03/19 04:48:34;;;;;;;15.57;5.40;;;10.10;99.90;;;;;;5046473;23;20190;-96
2023/03/19 04:50:50;;;;;;;15.10;6.07;;;10.00;99.90;;;;;;5022789;23;20202;-96
2023/03/19 04:53:00;;;;;;;15.80;5.15;;;10.10;99.90;;;;;;5046761;23;20185;-94
2023/03/19 04:55:27;;;;;;;13.45;5.22;;;10.10;99.90;;;;;;5023626;23;20154;-95
2023/03/19 04:57:52;;;;;;;14.45;5.18;;;9.90;99.90;;;;;;5047101;23;20150;-94
2023/03/19 05:00:03;;;;;;;14.05;5.60;;;9.80;99.90;;;;;;5024257;23;20237;-96
2023/03/19 05:02:17;;;;;;;17.83;5.70;;;9.80;99.90;;;;;;5024202;23;20514;-96
2023/03/19 05:04:28;;;;;;;14.80;5.30;;;9.90;99.90;;;;;;5022982;23;20198;-95
2023/03/19 05:06:38;;;;;;;14.77;5.40;;;9.80;99.90;;;;;;5023846;23;20158;-96
2023/03/19 05:08:42;;;;;;;18.20;6.13;;;9.70;99.90;;;;;;5023355;23;20159;-96
2023/03/19 05:10:47;;;;;;;16.38;5.97;;;9.90;99.90;;;;;;5023154;23;20161;-95
2023/03/19 05:12:50;;;;;;;12.50;5.80;;;9.90;99.90;;;;;;5049601;23;20158;-95
2023/03/19 05:15:14;;;;;;;13.50;5.40;;;10.10;99.90;;;;;;5049693;23;20192;-95
2023/03/19 05:17:27;;;;;;;13.88;5.82;;;10.20;99.90;;;;;;5023626;23;20582;-96
2023/03/19 05:19:59;;;;;;;13.25;6.10;;;10.20;99.90;;;;;;5051466;23;20556;-96
2023/03/19 05:22:03;;;;;;;15.23;6.43;;;10.20;99.90;;;;;;5047575;23;20155;-95
2023/03/19 05:24:04;;;;;;;14.43;6.85;;;10.10;99.90;;;;;;5022999;23;20166;-95
2023/03/19 05:26:09;;;;;;;16.85;6.68;;;10.10;99.90;;;;;;5048634;23;20520;-95
2023/03/19 05:28:29;;;;;;;15.63;6.65;;;10.20;99.90;;;;;;5051595;23;20193;-96
2023/03/19 05:30:33;;;;;;;11.60;6.43;;;10.40;99.90;;;;;;5025138;23;20183;-95
2023/03/19 05:32:45;;;;;;;20.30;7.70;;;10.30;99.90;;;;;;5047791;23;20150;-95
2023/03/19 05:34:57;;;;;;;19.10;7.30;;;10.50;99.90;;;;;;5024606;23;20219;-95
2023/03/19 05:36:59;;;;;;;16.67;7.50;;;10.50;99.90;;;;;;5021788;23;20151;-95
2023/03/19 05:39:08;;;;;;;17.25;7.68;;;10.40;99.90;;;;;;5024120;23;20159;-94
2023/03/19 05:41:12;;;;;;;18.77;7.80;;;10.10;99.90;;;;;;5023104;23;20150;-95
2023/03/19 05:43:38;;;;;;;11.55;6.57;;;10.00;99.90;;;;;;5025558;23;20247;-95
2023/03/19 05:46:27;;;;;;;16.83;7.32;;;9.90;99.90;;;;;;5047256;23;20170;-95
2023/03/19 05:48:50;;;;;;;15.60;6.80;;;9.90;99.90;;;;;;5048015;23;20150;-94
2023/03/19 05:50:55;;;;;;;13.05;6.20;;;10.00;99.90;;;;;;5047010;23;20214;-95
2023/03/19 05:53:02;;;;;;;14.60;6.10;;;9.80;99.90;;;;;;5022373;23;20210;-95
2023/03/19 05:55:09;;;;;;;19.02;6.85;;;9.90;99.90;;;;;;5026364;23;20162;-96
2023/03/19 05:57:25;;;;;;;15.63;5.80;;;9.90;99.90;;;;;;5031420;23;20165;-94
2023/03/19 05:59:44;;;;;;;11.00;5.63;;;10.00;99.90;;;;;;5057432;23;20174;-96
2023/03/19 06:02:03;;;;;;;13.13;5.28;;;9.90;99.90;;;;;;5051763;23;20174;-95
2023/03/19 06:04:13;;;;;;;10.87;5.40;;;9.90;99.90;;;;;;5048304;23;20163;-96
2023/03/19 06:06:17;;;;;;;17.08;5.80;;;10.00;99.90;;;;;;5026233;23;20186;-93
2023/03/19 06:08:20;;;;;;;9.60;4.78;;;10.00;99.90;;;;;;5026386;23;20158;-94
2023/03/19 06:10:39;;;;;;;12.93;5.03;;;9.80;99.90;;;;;;5052246;23;20206;-94
2023/03/19 06:12:44;;;;;;;16.23;4.78;;;9.90;99.90;;;;;;5027632;23;20170;-95
2023/03/19 06:15:04;;;;;;;11.88;4.60;;;9.90;99.90;;;;;;5052306;23;20152;-95
2023/03/19 06:17:19;;;;;;;13.10;4.40;;;10.00;99.90;;;;;;5075006;23;20161;-95
2023/03/19 06:19:26;;;;;;;13.20;4.05;;;10.20;99.90;;;;;;5026030;23;20302;-96
2023/03/19 06:21:29;;;;;;;12.32;3.95;;;10.30;99.90;;;;;;5025285;23;20162;-94
2023/03/19 06:23:32;;;;;;;8.07;3.65;;;10.20;99.90;;;;;;5026844;23;20179;-95
2023/03/19 06:25:35;;;;;;;13.45;4.28;;;10.10;99.90;;;;;;5025043;23;20198;-95
2023/03/19 06:27:43;;;;;;;14.05;4.75;;;10.10;99.90;;;;;;5051630;23;20713;-95
2023/03/19 06:29:57;;;;;;;13.25;3.67;;;10.20;99.90;;;;;;5029893;23;20562;-96
2023/03/19 06:32:05;;;;;;;15.70;4.35;;;10.30;99.90;;;;;;5050842;23;20154;-95
2023/03/19 06:34:13;;;;;;;16.05;4.40;;;10.40;99.90;;;;;;5048888;23;20165;-95
2023/03/19 06:36:20;;;;;;;14.15;4.05;;;10.60;99.90;;;;;;5026586;23;20183;-95
2023/03/19 06:38:25;;;;;;;12.10;3.75;;;10.60;99.90;;;;;;5026770;23;20151;-95
2023/03/19 06:40:30;;;;;;;8.60;3.55;;;10.70;99.90;;;;;;5052716;23;20182;-94
2023/03/19 06:42:33;;;;;;;12.05;4.00;;;10.80;99.90;;;;;;5026452;23;20387;-95
2023/03/19 06:44:35;;;;;;;14.70;4.75;;;10.70;99.90;;;;;;5026112;23;20194;-96
2023/03/19 06:46:43;;;;;;;17.70;4.32;;;10.70;99.90;;;;;;5051994;23;20153;-95
2023/03/19 06:48:47;;;;;;;11.65;3.42;;;10.80;99.90;;;;;;5025360;23;20158;-94
2023/03/19 06:50:48;;;;;;;13.50;3.38;;;10.90;99.90;;;;;;5025680;23;20781;-94
2023/03/19 06:52:52;;;;;;;16.55;3.97;;;11.00;99.90;;;;;;5026261;23;20621;-94
2023/03/19 06:54:55;;;;;;;17.00;3.88;;;11.00;99.90;;;;;;5028311;23;20151;-94
2023/03/19 06:56:56;;;;;;;14.25;3.78;;;11.10;99.90;;;;;;5027571;23;20206;-95
2023/03/19 06:59:15;;;;;;;15.35;4.00;;;11.20;99.90;;;;;;5028155;23;20199;-95
2023/03/19 07:01:17;;;;;;;15.43;3.35;;;11.40;99.90;;;;;;5028005;23;20158;-95
2023/03/19 07:03:28;;;;;;;14.75;3.35;;;12.00;99.90;;;;;;5054489;23;20161;-94
2023/03/19 07:05:40;;;;;;;12.70;3.00;;;12.90;99.90;;;;;;5051689;23;20213;-95
2023/03/19 07:07:47;;;;;;;13.80;3.13;;;14.10;99.90;;;;;;5055149;23;20154;-95
2023/03/19 07:09:53;;;;;;;9.80;2.55;;;15.00;99.90;;;;;;5055706;23;20181;-95
2023/03/19 07:12:05;;;;;;;14.55;2.50;;;15.50;99.90;;;;;;5034290;23;20629;-95
2023/03/19 07:14:19;;;;;;;9.60;2.72;;;16.30;99.90;;;;;;5034471;23;20201;-95
2023/03/19 07:16:24;;;;;;;13.27;2.83;;;16.50;99.90;;;;;;5033751;23;20182;-95
2023/03/19 07:18:31;;;;;;;9.75;2.72;;;17.10;99.90;;;;;;5057756;23;20162;-96
2023/03/19 07:20:52;;;;;;;;;;;;;;;;;;;;;
2023/03/19 07:22:55;;;;;;;13.05;2.50;;;17.50;99.90;;;;;;5055426;23;20170;-96
2023/03/19 07:38:13;;;;;;;11.15;2.60;;;19.10;99.90;;;;;;4402220;22;18861306;-95
2023/03/19 07:40:42;;;;;;;10.20;2.83;;;18.60;99.90;;;;;;5163856;23;20226;-95
2023/03/19 07:42:54;;;;;;;9.07;2.40;;;17.40;99.90;;;;;;5135659;23;20182;-94
2023/03/19 07:45:13;;;;;;;15.02;2.45;;;16.90;99.90;;;;;;5136986;23;20200;-95
2023/03/19 07:47:39;;;;;;;12.00;2.08;;;17.50;99.90;;;;;;5162162;23;20222;-96
2023/03/19 07:50:17;;;;;;;12.77;2.60;;;18.30;99.90;;;;;;5161391;23;20179;-96
2023/03/19 07:53:03;;;;;;;12.25;2.42;;;19.00;99.90;;;;;;5140610;23;20158;-95
2023/03/19 07:55:57;;;;;;;;;;;;;;;;;;;;;
2023/03/19 07:58:35;;;;;;;11.27;2.33;;;20.10;99.90;;;;;;5166974;23;20170;-96
2023/03/19 08:01:17;;;;;;;11.80;2.58;;;19.20;99.90;;;;;;5113080;23;20203;-96
2023/03/19 08:03:19;;;;;;;10.82;2.58;;;19.50;99.90;;;;;;5160538;23;20155;-95
2023/03/19 08:05:46;;;;;;;13.10;2.85;;;19.70;99.90;;;;;;5137873;23;20198;-95
2023/03/19 08:08:19;;;;;;;;;;;;;;;;;;;;;
2023/03/19 08:13:54;;;;;;;10.75;3.22;;;20.60;99.90;;;;;;5066213;23;20165;-95
2023/03/19 08:16:28;;;;;;;12.00;2.58;;;20.30;99.90;;;;;;5005895;23;20223;-96
2023/03/19 08:18:32;;;;;;;12.60;2.95;;;19.80;99.90;;;;;;5041061;23;20365;-96
2023/03/19 08:21:32;;;;;;;;;;;;;;;;;;;;;
2023/03/19 08:23:53;;;;;;;11.90;2.72;;;19.70;99.90;;;;;;5065836;23;20162;-96
2023/03/19 08:26:42;;;;;;;;;;;;;;;;;;;;;
2023/03/19 08:29:11;;;;;;;15.48;3.10;;;20.20;99.90;;;;;;5066076;23;20217;-94
2023/03/19 08:31:57;;;;;;;12.85;3.42;;;20.50;99.90;;;;;;5163498;23;20198;-96
2023/03/19 08:34:29;;;;;;;14.20;3.15;;;21.40;99.90;;;;;;5150350;23;20155;-96
2023/03/19 08:37:23;;;;;;;;;;;;;;;;;;;;;
2023/03/19 08:40:33;;;;;;;;;;;;;;;;;;;;;
2023/03/19 08:44:07;;;;;;;14.60;3.28;;;18.80;99.90;;;;;;4928303;23;20166;-96
2023/03/19 08:46:04;;;;;;;13.20;3.47;;;17.80;99.90;;;;;;5155836;23;20226;-95
2023/03/19 08:48:16;;;;;;;19.45;3.95;;;17.10;99.90;;;;;;5138000;23;20216;-95
2023/03/19 08:50:22;;;;;;;14.45;3.75;;;17.30;99.90;;;;;;5137577;23;20171;-95
2023/03/19 08:52:32;;;;;;;17.48;4.20;;;17.30;99.90;;;;;;5110774;23;20152;-96
2023/03/19 08:54:37;;;;;;;21.20;3.60;;;16.90;99.90;;;;;;5134327;23;20162;-95
2023/03/19 08:56:42;;;;;;;16.55;3.88;;;17.10;99.90;;;;;;5112061;23;20153;-95
2023/03/19 08:58:50;;;;;;;17.73;3.53;;;16.80;99.90;;;;;;5109330;23;20160;-95
2023/03/19 09:01:01;;;;;;;16.63;3.97;;;16.30;99.90;;;;;;5057631;23;20154;-95
2023/03/19 09:03:04;;;;;;;16.52;4.22;;;16.20;99.90;;;;;;5110208;23;20137;-94
2023/03/19 09:05:08;;;;;;;22.55;3.83;;;16.40;99.90;;;;;;5109227;23;20188;-95
2023/03/19 09:07:41;;;;;;;17.20;3.63;;;16.30;99.90;;;;;;5130174;23;20187;-96
2023/03/19 09:10:15;;;;;;;16.83;3.90;;;16.20;99.90;;;;;;5108360;23;20188;-95
2023/03/19 09:12:27;;;;;;;12.90;3.03;;;15.90;99.90;;;;;;5101247;23;20161;-96
2023/03/19 09:14:29;;;;;;;18.30;4.22;;;15.90;99.90;;;;;;5102481;23;20257;-95
2023/03/19 09:16:35;;;;;;;15.70;3.58;;;16.20;99.90;;;;;;5101833;23;20461;-94
2023/03/19 09:18:43;;;;;;;13.27;3.30;;;16.10;99.90;;;;;;5104332;23;20168;-96
2023/03/19 09:20:53;;;;;;;21.30;3.70;;;16.00;99.90;;;;;;5103282;23;20184;-96
2023/03/19 09:22:58;;;;;;;16.77;3.15;;;16.40;99.90;;;;;;5101698;23;20168;-95
2023/03/19 09:25:05;;;;;;;13.27;2.83;;;16.10;99.90;;;;;;5103984;23;20203;-96
2023/03/19 09:27:30;;;;;;;18.38;3.53;;;15.80;99.90;;;;;;5080611;23;20153;-95
2023/03/19 09:29:36;;;;;;;16.35;2.90;;;15.80;99.90;;;;;;5076360;23;20553;-95
2023/03/19 09:31:45;;;;;;;16.05;3.42;;;15.60;99.90;;;;;;5105667;23;20192;-92
2023/03/19 09:33:46;;;;;;;14.30;2.72;;;15.70;99.90;;;;;;5104954;23;20153;-96
2023/03/19 09:35:55;;;;;;;15.82;3.03;;;15.60;99.90;;;;;;5104393;23;20157;-96
2023/03/19 09:38:03;;;;;;;12.93;3.33;;;15.70;99.90;;;;;;5102491;23;20164;-96
2023/03/19 09:40:16;;;;;;;19.30;3.38;;;15.70;99.90;;;;;;5104450;23;20172;-95
2023/03/19 09:42:55;;;;;;;15.38;3.10;;;15.20;99.90;;;;;;5107840;23;20141;-94
2023/03/19 09:45:11;;;;;;;15.82;3.67;;;15.50;99.90;;;;;;5149627;23;20219;-95
2023/03/19 09:47:27;;;;;;;18.50;3.90;;;15.60;99.90;;;;;;5125309;23;20212;-95
2023/03/19 09:49:50;;;;;;;20.25;3.97;;;15.80;99.90;;;;;;5126268;23;20344;-94
2023/03/19 09:52:10;;;;;;;13.98;3.58;;;15.40;99.90;;;;;;5143779;23;20226;-95
2023/03/19 09:54:32;;;;;;;18.50;4.28;;;15.10;99.90;;;;;;5151461;23;20155;-96
2023/03/19 09:56:53;;;;;;;17.08;4.97;;;15.30;99.90;;;;;;5132319;23;20206;-95
2023/03/19 09:59:11;;;;;;;16.77;4.80;;;15.20;99.90;;;;;;5129188;23;20236;-95
2023/03/19 10:01:40;;;;;;;21.90;5.63;;;15.10;99.90;;;;;;5152056;23;20206;-95
2023/03/19 10:04:32;;;;;;;23.42;5.45;;;14.90;99.90;;;;;;5151398;23;20151;-94
2023/03/19 10:06:45;;;;;;;20.67;6.70;;;14.90;99.90;;;;;;5127981;23;20160;-95
2023/03/19 10:09:32;;;;;;;20.38;6.38;;;14.90;99.90;;;;;;5129260;23;20227;-96
2023/03/19 10:12:22;;;;;;;;;;;;;;;;;;;;;
2023/03/19 10:15:01;;;;;;;21.55;7.32;;;15.10;99.90;;;;;;5157547;23;20163;-95
2023/03/19 10:17:59;;;;;;;27.58;8.52;;;14.30;99.90;;;;;;5126449;23;20164;-95
2023/03/19 10:20:38;;;;;;;22.45;8.70;;;14.30;99.90;;;;;;5152072;23;20664;-95
2023/03/19 10:23:09;;;;;;;18.50;8.85;;;14.30;99.90;;;;;;5154903;23;20156;-95
2023/03/19 10:25:19;;;;;;;21.10;9.57;;;14.00;99.90;;;;;;5130328;23;20199;-96
2023/03/19 10:27:30;;;;;;;20.52;9.43;;;13.80;99.90;;;;;;5083028;23;20177;-95
2023/03/19 10:29:40;;;;;;;23.23;9.85;;;13.70;99.90;;;;;;5153556;23;20236;-95
2023/03/19 10:32:06;;;;;;;27.67;10.45;;;13.50;99.90;;;;;;5131113;23;20155;-95
2023/03/19 10:34:42;;;;;;;27.25;10.57;;;13.50;99.90;;;;;;5133890;23;20187;-94
2023/03/19 10:37:06;;;;;;;;;;;;;;;;;;;;;
2023/03/19 10:39:24;;;;;;;22.48;11.02;;;14.00;99.90;;;;;;5152371;23;20709;-95
2023/03/19 10:41:51;;;;;;;28.35;12.02;;;14.00;99.90;;;;;;5128284;23;20149;-95
2023/03/19 10:44:25;;;;;;;22.45;11.23;;;14.00;99.90;;;;;;5130621;23;20180;-96
2023/03/19 10:47:12;;;;;;;26.40;13.32;;;13.90;99.90;;;;;;5111810;23;20163;-96
2023/03/19 10:49:44;;;;;;;27.15;12.50;;;14.00;99.90;;;;;;5130252;23;20180;-95
2023/03/19 10:52:22;;;;;;;19.92;11.75;;;13.90;99.90;;;;;;5157320;23;20173;-95
2023/03/19 10:55:16;;;;;;;20.27;9.60;;;13.90;99.90;;;;;;5131998;23;20156;-96
2023/03/19 10:57:48;;;;;;;31.17;14.00;;;13.70;99.90;;;;;;5149299;23;20234;-94
2023/03/19 11:00:27;;;;;;;33.00;16.40;;;13.70;99.90;;;;;;5144601;23;20197;-95
2023/03/19 11:05:17;;;;;;;30.27;15.77;;;13.70;99.90;;;;;;5149139;23;20214;-94
2023/03/19 11:07:38;;;;;;;37.00;15.82;;;13.90;99.90;;;;;;5156345;23;20231;-94
2023/03/19 11:10:20;;;;;;;35.72;16.00;;;13.60;99.90;;;;;;5155801;23;20172;-96
2023/03/19 11:12:36;;;;;;;35.03;16.55;;;13.50;99.90;;;;;;5156060;23;20159;-95
2023/03/19 11:15:17;;;;;;;;;;;;;;;;;;;;;
2023/03/19 11:17:30;;;;;;;35.88;16.40;;;13.70;99.90;;;;;;5152058;23;20651;-96
2023/03/19 11:20:01;;;;;;;32.80;14.60;;;13.80;99.90;;;;;;5156069;23;20230;-95
2023/03/19 11:22:45;;;;;;;29.98;14.20;;;13.70;99.90;;;;;;5158527;23;20204;-95
2023/03/19 11:25:04;;;;;;;27.50;13.23;;;13.80;99.90;;;;;;5131830;23;20191;-96
2023/03/19 11:27:11;;;;;;;35.38;15.38;;;14.10;99.90;;;;;;5154418;23;20159;-96
2023/03/19 11:29:12;;;;;;;25.60;14.73;;;14.30;99.90;;;;;;5127941;23;20183;-94
2023/03/19 11:31:56;;;;;;;28.65;14.23;;;14.80;99.90;;;;;;5123537;23;20219;-95
2023/03/19 11:34:17;;;;;;;27.77;13.68;;;15.60;99.90;;;;;;5120573;23;20152;-94
2023/03/19 11:36:18;;;;;;;25.17;12.93;;;16.30;99.90;;;;;;5119683;23;20155;-94
2023/03/19 11:38:35;;;;;;;26.98;13.13;;;16.40;99.90;;;;;;5119123;23;20164;-95
2023/03/19 11:40:42;;;;;;;23.08;11.80;;;16.40;99.90;;;;;;5147353;23;20175;-95
2023/03/19 11:42:49;;;;;;;15.30;9.32;;;16.20;99.90;;;;;;5125936;23;20156;-94
2023/03/19 11:45:01;;;;;;;18.83;10.27;;;16.10;99.90;;;;;;5121191;23;20195;-96
2023/03/19 11:47:14;;;;;;;23.83;9.63;;;16.00;99.90;;;;;;5120290;23;20159;-95
2023/03/19 11:49:15;;;;;;;16.48;8.77;;;16.40;99.90;;;;;;5119437;23;20257;-96
2023/03/19 11:51:38;;;;;;;18.35;9.05;;;16.70;99.90;;;;;;5147510;23;20183;-96
2023/03/19 11:54:25;;;;;;;;;;;;;;;;;;;;;
2023/03/19 11:56:48;;;;;;;16.00;8.15;;;16.90;99.90;;;;;;5146388;23;20192;-95
2023/03/19 11:59:16;;;;;;;16.13;9.02;;;16.90;99.90;;;;;;5126066;23;20148;-95
2023/03/19 12:02:02;;;;;;;16.63;8.32;;;16.70;99.90;;;;;;5125260;23;20235;-96
2023/03/19 12:04:42;;;;;;;20.45;9.23;;;16.60;99.90;;;;;;5074007;23;20329;-95
2023/03/19 12:07:30;;;;;;;16.60;9.35;;;16.40;99.90;;;;;;5126131;23;20160;-95
2023/03/19 12:10:01;;;;;;;21.88;12.15;;;15.80;99.90;;;;;;5156680;23;20482;-95
2023/03/19 12:12:25;;;;;;;22.27;11.40;;;15.20;99.90;;;;;;5087158;23;20152;-96
2023/03/19 12:15:31;;;;;;;22.50;11.13;;;15.20;99.90;;;;;;5158669;23;20655;-95
2023/03/19 12:18:01;;;;;;;20.50;11.35;;;15.50;99.90;;;;;;5121545;23;20179;-95
2023/03/19 12:20:56;;;;;;;21.23;11.23;;;15.40;99.90;;;;;;5132616;23;20200;-94
2023/03/19 12:23:49;;;;;;;;;;;;;;;;;;;;;
2023/03/19 12:26:18;;;;;;;24.55;12.10;;;15.20;99.90;;;;;;5154343;23;20186;-95
2023/03/19 12:31:57;;;;;;;;;;;;;;;;;;;;;
2023/03/19 12:34:40;;;;;;;26.80;11.73;;;14.70;99.90;;;;;;5106220;23;20199;-94
2023/03/19 12:37:25;;;;;;;;;;;;;;;;;;;;;
2023/03/19 12:39:42;;;;;;;21.75;10.25;;;15.20;99.90;;;;;;5153289;23;20195;-95
2023/03/19 12:42:05;;;;;;;16.20;8.88;;;15.50;99.90;;;;;;5125247;23;20183;-96
2023/03/19 12:45:05;;;;;;;;;;;;;;;;;;;;;
2023/03/19 12:47:39;;;;;;;11.68;6.75;;;15.40;99.90;;;;;;5150651;23;20222;-94
2023/03/19 12:50:45;;;;;;;11.70;6.47;;;15.20;99.90;;;;;;5136618;23;20231;-96
2023/03/19 12:53:00;;;;;;;8.30;4.40;;;15.40;99.90;;;;;;5025242;23;21174;-95
2023/03/19 12:55:18;;;;;;;8.23;4.22;;;15.20;99.90;;;;;;5125165;23;20147;-95
2023/03/19 12:58:10;;;;;;;6.80;3.95;;;15.60;99.90;;;;;;5126396;23;20132;-95
2023/03/19 13:00:36;;;;;;;7.15;4.00;;;15.60;99.90;;;;;;5123822;23;20180;-95
2023/03/19 13:03:09;;;;;;;9.30;4.45;;;15.60;99.90;;;;;;5126882;23;20156;-95
2023/03/19 13:05:47;;;;;;;7.93;4.45;;;15.50;99.90;;;;;;5125898;23;20188;-96
2023/03/19 13:09:31;;;;;;;;;;;;;;;;;;;;;
2023/03/19 13:11:46;;;;;;;12.05;5.28;;;14.60;99.90;;;;;;5134140;23;20247;-95
2023/03/19 13:14:48;;;;;;;21.77;13.10;;;14.30;99.90;;;;;;5089393;23;20160;-95
2023/03/19 13:17:55;;;;;;;14.95;10.13;;;14.50;99.90;;;;;;5149254;23;20187;-95
2023/03/19 13:20:14;;;;;;;11.90;6.68;;;14.20;99.90;;;;;;5125826;23;20179;-95
2023/03/19 13:22:22;;;;;;;10.93;6.93;;;14.00;99.90;;;;;;5125776;23;20156;-95
2023/03/19 13:24:52;;;;;;;9.02;5.30;;;14.20;99.90;;;;;;5152164;23;20541;-96
2023/03/19 13:30:55;;;;;;;9.07;5.28;;;13.60;99.90;;;;;;5050222;23;20189;-94
2023/03/19 13:33:45;;;;;;;9.77;5.10;;;13.60;99.90;;;;;;4983451;23;20169;-95
2023/03/19 13:36:13;;;;;;;8.90;5.07;;;13.50;99.90;;;;;;5004506;23;20160;-93
2023/03/19 13:39:02;;;;;;;6.90;5.07;;;13.40;99.90;;;;;;4982051;23;20171;-95
2023/03/19 13:41:41;;;;;;;10.88;5.05;;;13.60;99.90;;;;;;4934948;24;20162;-95
2023/03/19 13:44:37;;;;;;;8.13;5.40;;;13.50;99.90;;;;;;4913426;23;20174;-95
2023/03/19 13:50:02;;;;;;;9.85;4.60;;;13.50;99.90;;;;;;4908838;24;20186;-95
2023/03/19 13:52:24;;;;;;;7.63;4.93;;;13.40;99.90;;;;;;4916968;23;20244;-95
2023/03/19 13:55:07;;;;;;;8.77;5.07;;;13.30;99.90;;;;;;4982251;23;20216;-96
2023/03/19 14:01:46;;;;;;;6.93;4.88;;;13.40;99.90;;;;;;4934634;24;20165;-95
2023/03/19 14:04:22;;;;;;;10.10;4.90;;;13.00;99.90;;;;;;4934869;24;20261;-96
2023/03/19 14:07:25;;;;;;;;;;;;;;;;;;;;;
2023/03/19 14:10:12;;;;;;;8.05;4.30;;;12.70;99.90;;;;;;5034800;23;20514;-95
2023/03/19 14:16:00;;;;;;;;;;;;;;;;;;;;;
2023/03/19 14:18:43;;;;;;;8.82;3.47;;;12.70;99.90;;;;;;4980195;23;20240;-96
2023/03/19 14:21:30;;;;;;;12.07;3.20;;;12.30;99.90;;;;;;4979023;23;20160;-95
2023/03/19 14:24:11;;;;;;;5.63;2.60;;;12.60;99.90;;;;;;4981457;23;20161;-95
2023/03/19 14:26:24;;;;;;;6.78;1.98;;;12.50;99.90;;;;;;4977086;23;20167;-95
2023/03/19 14:29:45;;;;;;;;;;;;;;;;;;;;;
2023/03/19 14:33:16;;;;;;;8.25;2.30;;;12.30;99.90;;;;;;5080881;23;20245;-95
2023/03/19 14:35:36;;;;;;;;;;;;;;;;;;;;;
2023/03/19 14:38:39;;;;;;;;;;;;;;;;;;;;;
2023/03/19 14:44:35;;;;;;;9.00;2.85;;;11.90;99.90;;;;;;5098909;23;20187;-96
2023/03/19 15:02:48;;;;;;;10.13;3.30;;;11.50;99.90;;;;;;4874638;23;20192;-95
2023/03/19 15:10:01;;;;;;;7.72;3.97;;;12.00;99.90;;;;;;4970751;23;20253;-96
2023/03/19 16:50:33;;;;;;;;;;;;;;;;;;;;;
2023/03/19 17:43:01;;;;;;;7.35;2.90;;;9.90;99.90;;;;;;5127543;22;20217;-95
2023/03/19 18:11:30;;;;;;;9.70;3.20;;;10.50;99.90;;;;;;5203375;22;20217;-95
2023/03/19 19:22:38;;;;;;;15.02;10.18;;;10.10;99.90;;;;;;5156128;22;20706;-93
2023/03/19 19:24:41;;;;;;;11.73;3.63;;;10.10;99.90;;;;;;5144959;23;20183;-93
2023/03/19 19:26:46;;;;;;;9.35;2.55;;;10.10;99.90;;;;;;5144068;23;20151;-95
2023/03/19 19:28:50;;;;;;;9.57;2.70;;;10.30;99.90;;;;;;5143044;23;20447;-94
2023/03/19 19:30:53;;;;;;;10.88;2.88;;;10.20;99.90;;;;;;5143661;23;20144;-93
2023/03/19 19:32:56;;;;;;;7.43;3.17;;;10.20;99.90;;;;;;5170240;23;20151;-96
2023/03/19 19:34:57;;;;;;;7.10;2.95;;;10.10;99.90;;;;;;5147404;23;20514;-95
2023/03/19 19:36:59;;;;;;;8.45;3.22;;;10.00;99.90;;;;;;5121099;23;20155;-94
2023/03/19 19:39:00;;;;;;;7.88;3.50;;;9.90;99.90;;;;;;5124216;23;20163;-95
2023/03/19 19:41:00;;;;;;;6.32;2.88;;;9.60;99.90;;;;;;5125834;23;20160;-93
2023/03/19 19:43:01;;;;;;;9.68;3.90;;;9.20;99.90;;;;;;5120766;23;20160;-94
2023/03/19 19:45:03;;;;;;;8.23;3.33;;;9.20;99.90;;;;;;5145611;23;20197;-92
2023/03/19 19:47:16;;;;;;;6.43;3.25;;;9.30;99.90;;;;;;5121130;23;20152;-96
2023/03/19 19:49:22;;;;;;;9.85;3.67;;;9.30;99.90;;;;;;5146834;23;20274;-94
2023/03/19 19:51:25;;;;;;;12.70;3.10;;;9.20;99.90;;;;;;5145495;23;20485;-96
2023/03/19 19:53:28;;;;;;;9.05;4.00;;;9.00;99.90;;;;;;5144819;23;20221;-92
2023/03/19 19:55:29;;;;;;;5.95;3.80;;;9.00;99.90;;;;;;5146151;23;20159;-96
2023/03/19 19:57:30;;;;;;;9.20;4.07;;;9.10;99.90;;;;;;5120228;23;20152;-92
2023/03/19 19:59:31;;;;;;;13.90;5.20;;;9.20;99.90;;;;;;5146641;23;20189;-92
2023/03/19 20:01:31;;;;;;;10.75;5.00;;;9.20;99.90;;;;;;5096849;23;20484;-92
2023/03/19 20:03:33;;;;;;;13.68;5.72;;;9.20;99.90;;;;;;5125013;23;20156;-95
2023/03/19 20:05:34;;;;;;;10.27;6.10;;;9.00;99.90;;;;;;5123332;23;20287;-94
2023/03/19 20:07:34;;;;;;;73.65;32.72;;;9.10;99.90;;;;;;5122621;23;20153;-94
2023/03/19 20:09:35;;;;;;;38.45;19.23;;;9.00;99.90;;;;;;5121584;23;20180;-91
2023/03/19 20:11:36;;;;;;;20.67;12.02;;;9.00;99.90;;;;;;5148112;23;20156;-96
2023/03/19 20:13:37;;;;;;;11.65;6.90;;;9.00;99.90;;;;;;5144870;23;20182;-92
2023/03/19 20:15:38;;;;;;;11.63;6.15;;;9.00;99.90;;;;;;5120781;23;20591;-95
2023/03/19 20:17:40;;;;;;;11.85;6.40;;;9.00;99.90;;;;;;5145370;23;20167;-93
2023/03/19 20:19:41;;;;;;;14.38;6.90;;;9.10;99.90;;;;;;5144965;23;20174;-96
2023/03/19 20:21:42;;;;;;;11.43;6.07;;;9.10;99.90;;;;;;5144391;23;20155;-96
2023/03/19 20:23:44;;;;;;;13.88;6.50;;;9.00;99.90;;;;;;5143604;23;20691;-94
2023/03/19 20:25:45;;;;;;;11.35;6.35;;;9.00;99.90;;;;;;5119008;23;20191;-96
2023/03/19 20:27:50;;;;;;;13.15;6.97;;;9.10;99.90;;;;;;5119676;23;20242;-93
2023/03/19 20:29:52;;;;;;;15.52;8.63;;;9.00;99.90;;;;;;5096131;23;20191;-94
2023/03/19 20:31:53;;;;;;;15.88;7.00;;;9.00;99.90;;;;;;5145584;23;20148;-92
2023/03/19 20:33:54;;;;;;;15.27;6.57;;;9.00;99.90;;;;;;5120483;23;20283;-94
2023/03/19 20:35:55;;;;;;;16.15;7.03;;;8.90;99.90;;;;;;5145545;23;20194;-92
2023/03/19 20:37:59;;;;;;;13.00;7.00;;;8.80;99.90;;;;;;5119921;23;20156;-93
2023/03/19 20:40:00;;;;;;;13.50;6.78;;;8.80;99.90;;;;;;5144802;23;20298;-96
2023/03/19 20:42:01;;;;;;;16.27;7.80;;;8.80;99.90;;;;;;5119210;23;20206;-96
2023/03/19 20:44:04;;;;;;;17.27;8.17;;;8.80;99.90;;;;;;5144135;23;20594;-92
2023/03/19 20:46:06;;;;;;;19.08;8.27;;;8.60;99.90;;;;;;5119419;23;20156;-92
2023/03/19 20:48:13;;;;;;;17.80;8.20;;;8.50;99.90;;;;;;5145065;23;20152;-92
2023/03/19 20:50:20;;;;;;;17.87;8.70;;;8.10;99.90;;;;;;5145778;23;20187;-94
2023/03/19 20:52:21;;;;;;;17.87;8.57;;;8.10;99.90;;;;;;5144290;23;20183;-95
2023/03/19 20:54:22;;;;;;;18.40;7.93;;;8.30;99.90;;;;;;5119458;23;20594;-95
2023/03/19 20:56:23;;;;;;;15.27;7.67;;;8.30;99.90;;;;;;5144185;23;20152;-95
2023/03/19 20:58:30;;;;;;;15.53;7.57;;;8.40;99.90;;;;;;5118850;23;20148;-95
2023/03/19 21:00:32;;;;;;;19.53;8.53;;;8.40;99.90;;;;;;5119945;23;20215;-95
2023/03/19 21:02:33;;;;;;;19.50;8.10;;;8.20;99.90;;;;;;5119636;23;20159;-96
2023/03/19 21:04:34;;;;;;;19.48;8.07;;;8.10;99.90;;;;;;5119188;23;20187;-96
2023/03/19 21:06:35;;;;;;;18.57;7.57;;;8.10;99.90;;;;;;5144367;23;20470;-92
2023/03/19 21:08:41;;;;;;;14.57;7.80;;;8.20;99.90;;;;;;5119336;23;20161;-95
2023/03/19 21:10:43;;;;;;;15.47;7.07;;;8.20;99.90;;;;;;5143739;23;20167;-94
2023/03/19 21:12:44;;;;;;;15.23;7.90;;;8.20;99.90;;;;;;5119717;23;20152;-93
2023/03/19 21:14:45;;;;;;;22.13;9.33;;;8.30;99.90;;;;;;5119608;23;20223;-92
2023/03/19 21:16:46;;;;;;;23.47;10.33;;;8.20;99.90;;;;;;5118769;23;20219;-96
2023/03/19 21:18:48;;;;;;;17.63;9.97;;;8.20;99.90;;;;;;5143406;23;20202;-92
2023/03/19 21:20:55;;;;;;;15.67;8.23;;;8.30;99.90;;;;;;5119042;23;20155;-95
2023/03/19 21:23:20;;;;;;;14.50;7.73;;;8.40;99.90;;;;;;5119187;23;20208;-95
2023/03/19 21:25:26;;;;;;;17.37;8.47;;;8.40;99.90;;;;;;5118997;23;20188;-93
2023/03/19 21:27:27;;;;;;;15.57;7.90;;;8.30;99.90;;;;;;5118790;23;20156;-92
2023/03/19 21:29:32;;;;;;;15.80;8.80;;;8.40;99.90;;;;;;5143665;23;20695;-96
2023/03/19 21:31:33;;;;;;;14.77;7.53;;;8.30;99.90;;;;;;5143792;23;20171;-93
2023/03/19 21:33:34;;;;;;;16.53;8.30;;;8.20;99.90;;;;;;5143770;23;20254;-93
2023/03/19 21:35:35;;;;;;;19.67;10.00;;;8.20;99.90;;;;;;5118596;23;20155;-95